Terminal Aerodrome Forecast
Issued by NWS

Home | Current Version | Previous Version | Text Only | Print | Product List | Glossary On
Versions: 1 2 3 4 5 6 7 8 9 10 11 12 13 14 15 16 17 18 19 20 21 22 23 24 25 26 27 28 29 30 31 32 33 34 35 36 37 38 39 40 41 42 43 44 45 46 47 48 49 50
881
FTUS46 KOTX 202333
TAFMWH
TAF
KMWH 202333Z 2100/2124 03006KT P6SM OVC050
      TEMPO 2100/2103 -RA
     FM210300 36004KT 3SM -SNPL BR OVC025
     FM210900 35005KT 1 1/2SM -SN OVC015
     FM211200 VRB04KT P6SM BKN015 OVC030
     FM212000 12004KT P6SM OVC008=

USA.gov is the U.S. government's official web portal to all federal, state and local government web resources and services.